createdAt,value
2023-05-04T00:00:00.261Z,32.20
2023-05-04T00:02:27.401Z,31.70
2023-05-04T00:04:54.881Z,31.50
2023-05-04T00:07:22.182Z,31.30
2023-05-04T00:09:50.848Z,30.80
2023-05-04T00:12:18.514Z,31.10
2023-05-04T00:14:45.467Z,30.90
2023-05-04T00:17:12.922Z,31.20
2023-05-04T00:19:42.341Z,31.50
2023-05-04T00:22:09.487Z,31.90
2023-05-04T00:24:36.488Z,31.90
2023-05-04T00:27:04.208Z,31.50
2023-05-04T00:29:31.566Z,31.10
2023-05-04T00:31:58.630Z,31.40
2023-05-04T00:34:25.818Z,31.20
2023-05-04T00:36:53.200Z,30.90
2023-05-04T00:39:20.170Z,31.30
2023-05-04T00:41:47.799Z,31.40
2023-05-04T00:44:14.743Z,31.50
2023-05-04T00:46:42.040Z,31.50
2023-05-04T00:49:10.144Z,31.80
2023-05-04T00:51:37.988Z,31.90
2023-05-04T00:54:05.535Z,32.10
2023-05-04T00:56:33.622Z,32.20
2023-05-04T00:59:00.648Z,32.00
2023-05-04T01:01:27.857Z,32.00
2023-05-04T01:03:56.138Z,32.00
2023-05-04T01:06:55.385Z,32.10
2023-05-04T01:09:38.393Z,32.40
2023-05-04T01:12:11.916Z,32.40
2023-05-04T01:14:40.100Z,32.30
2023-05-04T01:17:08.651Z,32.20
2023-05-04T01:19:35.921Z,32.30
2023-05-04T01:22:03.004Z,32.40
2023-05-04T01:24:31.627Z,32.30
2023-05-04T01:27:09.726Z,32.00
2023-05-04T01:30:09.223Z,32.00
2023-05-04T01:32:37.764Z,32.20
2023-05-04T01:35:06.641Z,32.30
2023-05-04T01:37:33.685Z,32.40
2023-05-04T01:40:00.755Z,32.30
2023-05-04T01:42:27.787Z,32.30
2023-05-04T01:44:54.736Z,32.30
2023-05-04T01:47:22.077Z,32.30
2023-05-04T01:49:49.100Z,32.40
2023-05-04T01:52:16.678Z,32.40
2023-05-04T01:54:43.721Z,32.40
2023-05-04T01:57:11.231Z,32.20
2023-05-04T01:59:38.171Z,32.30
2023-05-04T02:02:05.300Z,32.40
2023-05-04T02:04:32.825Z,32.40
2023-05-04T02:06:59.852Z,31.90
2023-05-04T02:09:27.123Z,32.00
2023-05-04T02:11:54.238Z,32.00
2023-05-04T02:14:21.268Z,32.00
2023-05-04T02:16:48.341Z,32.00
2023-05-04T02:19:15.418Z,31.90
2023-05-04T02:21:42.588Z,32.10
2023-05-04T02:24:09.756Z,31.90
2023-05-04T02:26:37.245Z,31.80
2023-05-04T02:29:05.164Z,31.60
2023-05-04T02:31:33.440Z,31.50
2023-05-04T02:34:01.674Z,31.40
2023-05-04T02:36:28.996Z,31.50
2023-05-04T02:38:56.153Z,31.40
2023-05-04T02:41:23.219Z,31.60
2023-05-04T02:43:50.250Z,31.70
2023-05-04T02:46:17.331Z,31.80
2023-05-04T02:48:44.462Z,31.40
2023-05-04T02:51:11.585Z,31.70
2023-05-04T02:53:38.549Z,31.90
2023-05-04T02:56:06.547Z,32.10
2023-05-04T02:58:33.534Z,32.30
2023-05-04T03:01:00.630Z,32.10
2023-05-04T03:03:27.951Z,32.00
2023-05-04T03:05:55.087Z,31.70
2023-05-04T03:08:22.010Z,31.60
2023-05-04T03:10:48.937Z,30.90
2023-05-04T03:13:16.805Z,31.50
2023-05-04T03:15:43.874Z,31.70
2023-05-04T03:18:10.980Z,31.90
2023-05-04T03:20:38.189Z,32.00
2023-05-04T03:23:06.086Z,32.10
2023-05-04T03:25:33.136Z,32.10
2023-05-04T03:28:03.263Z,32.20
2023-05-04T03:30:30.211Z,32.10
2023-05-04T03:32:57.282Z,31.90
2023-05-04T03:35:25.155Z,31.90
2023-05-04T03:37:52.412Z,31.70
2023-05-04T03:40:23.136Z,31.60
2023-05-04T03:42:54.315Z,31.40
2023-05-04T03:45:24.289Z,31.20
2023-05-04T03:47:51.340Z,31.30
2023-05-04T03:50:18.679Z,31.40
2023-05-04T03:52:47.084Z,31.30
2023-05-04T03:55:14.293Z,31.00
2023-05-04T03:57:41.618Z,30.70
2023-05-04T04:00:09.490Z,30.40
2023-05-04T04:02:36.774Z,29.70
2023-05-04T04:05:04.011Z,29.80
2023-05-04T04:07:31.206Z,30.00
2023-05-04T04:09:58.403Z,30.20
2023-05-04T04:12:25.501Z,30.30
2023-05-04T04:14:52.624Z,30.50
2023-05-04T04:17:19.697Z,30.20
2023-05-04T04:19:46.877Z,30.20
2023-05-04T04:22:13.887Z,30.30
2023-05-04T04:24:41.105Z,30.80
2023-05-04T04:27:08.140Z,30.80
2023-05-04T04:29:35.778Z,30.40
2023-05-04T04:32:03.614Z,30.70
2023-05-04T04:34:30.700Z,30.60
2023-05-04T04:36:57.854Z,30.70
2023-05-04T04:39:25.089Z,30.30
2023-05-04T04:41:52.412Z,30.50
2023-05-04T04:44:20.841Z,30.60
2023-05-04T04:46:48.611Z,30.80
2023-05-04T04:49:18.038Z,30.90
2023-05-04T04:51:45.192Z,31.60
2023-05-04T04:54:12.216Z,31.70
2023-05-04T04:56:40.874Z,32.20
2023-05-04T04:59:08.024Z,32.20
2023-05-04T05:01:35.058Z,32.50
2023-05-04T05:04:02.168Z,32.50
2023-05-04T05:06:29.437Z,32.80
2023-05-04T05:08:57.882Z,32.80
2023-05-04T05:11:25.008Z,33.20
2023-05-04T05:13:52.060Z,33.20
2023-05-04T05:16:19.277Z,33.30
2023-05-04T05:18:46.962Z,33.20
2023-05-04T05:21:14.835Z,32.80
2023-05-04T05:23:44.330Z,32.50
2023-05-04T05:26:11.923Z,32.80
2023-05-04T05:28:39.604Z,32.20
2023-05-04T05:31:07.187Z,31.60
2023-05-04T05:33:34.310Z,32.20
2023-05-04T05:36:01.478Z,32.70
2023-05-04T05:38:28.488Z,32.20
2023-05-04T05:40:55.688Z,32.60
2023-05-04T05:43:22.889Z,33.10
2023-05-04T05:45:50.127Z,33.00
2023-05-04T05:48:17.141Z,32.50
2023-05-04T05:50:44.409Z,32.20
2023-05-04T05:53:11.740Z,32.80
2023-05-04T05:55:38.699Z,33.60
2023-05-04T05:58:06.185Z,33.80
2023-05-04T06:00:33.200Z,33.80
2023-05-04T06:03:00.498Z,33.40
2023-05-04T06:05:27.935Z,33.40
2023-05-04T06:07:55.302Z,33.30
2023-05-04T06:10:22.530Z,34.10
2023-05-04T06:12:49.598Z,34.60
2023-05-04T06:15:16.847Z,34.60
2023-05-04T06:17:43.875Z,34.30
2023-05-04T06:20:11.326Z,34.50
2023-05-04T06:22:38.403Z,35.60
2023-05-04T06:25:08.173Z,35.40
2023-05-04T06:27:35.697Z,35.20
2023-05-04T06:30:02.732Z,35.90
2023-05-04T06:32:29.863Z,36.00
2023-05-04T06:34:57.216Z,36.00
2023-05-04T06:37:24.168Z,36.60
2023-05-04T06:39:51.375Z,36.70
2023-05-04T06:42:18.429Z,36.20
2023-05-04T06:44:45.627Z,37.40
2023-05-04T06:47:12.633Z,38.10
2023-05-04T06:49:39.710Z,38.00
2023-05-04T06:52:06.788Z,38.60
2023-05-04T06:54:33.787Z,38.30
2023-05-04T06:57:03.663Z,38.10
2023-05-04T06:59:30.744Z,37.20
2023-05-04T07:01:57.987Z,38.00
2023-05-04T07:04:25.075Z,39.00
2023-05-04T07:06:52.368Z,39.60
2023-05-04T07:09:20.056Z,39.40
2023-05-04T07:11:48.793Z,40.10
2023-05-04T07:14:16.164Z,40.50
2023-05-04T07:16:43.383Z,40.30
2023-05-04T07:19:10.682Z,40.80
2023-05-04T07:21:38.000Z,40.50
2023-05-04T07:24:06.990Z,40.80
2023-05-04T07:26:34.259Z,40.70
2023-05-04T07:29:01.344Z,41.50
2023-05-04T07:31:30.278Z,40.50
2023-05-04T07:33:57.734Z,39.10
2023-05-04T07:36:26.667Z,38.70
2023-05-04T07:38:54.387Z,39.80
2023-05-04T07:41:21.739Z,39.40
2023-05-04T07:43:49.113Z,40.70
2023-05-04T07:46:16.581Z,41.40
2023-05-04T07:48:43.678Z,41.70
2023-05-04T07:51:14.867Z,42.70
2023-05-04T07:53:43.314Z,43.10
2023-05-04T07:56:12.420Z,44.00
2023-05-04T07:58:39.679Z,44.40
2023-05-04T08:01:06.754Z,43.30
2023-05-04T08:03:33.992Z,42.90
2023-05-04T08:06:01.260Z,41.40
2023-05-04T08:08:28.174Z,40.70
2023-05-04T08:10:59.789Z,40.70
2023-05-04T08:13:32.042Z,41.40
2023-05-04T08:16:01.421Z,42.60
2023-05-04T08:18:28.387Z,42.10
2023-05-04T08:20:55.477Z,42.00
2023-05-04T08:23:22.472Z,43.10
2023-05-04T08:25:49.444Z,43.90
2023-05-04T08:28:16.478Z,43.40
2023-05-04T08:30:43.547Z,41.90
2023-05-04T08:33:10.664Z,42.10
2023-05-04T08:35:38.130Z,43.10
2023-05-04T08:38:05.227Z,43.50
2023-05-04T08:40:33.797Z,44.40
2023-05-04T08:43:01.171Z,45.10
2023-05-04T08:45:29.387Z,45.10
2023-05-04T08:47:56.377Z,43.70
2023-05-04T08:50:23.986Z,42.40
2023-05-04T08:52:52.381Z,42.40
2023-05-04T08:55:20.239Z,43.40
2023-05-04T08:57:48.563Z,44.30
2023-05-04T09:00:18.070Z,44.50
2023-05-04T09:02:48.254Z,45.00
2023-05-04T09:05:15.622Z,45.40
2023-05-04T09:07:42.701Z,46.10
2023-05-04T09:10:11.289Z,43.50
2023-05-04T09:12:38.400Z,43.00
2023-05-04T09:15:19.369Z,43.50
2023-05-04T09:18:06.899Z,42.10
2023-05-04T09:20:47.507Z,40.80
2023-05-04T09:23:14.711Z,41.80
2023-05-04T09:25:52.377Z,42.40
2023-05-04T09:28:21.675Z,43.20
2023-05-04T09:30:51.726Z,44.10
2023-05-04T09:33:26.656Z,44.90
2023-05-04T09:35:53.711Z,45.50
2023-05-04T09:38:29.857Z,46.10
2023-05-04T09:40:57.202Z,46.50
2023-05-04T09:43:27.157Z,45.00
2023-05-04T09:45:54.539Z,43.80
2023-05-04T09:48:25.871Z,42.60
2023-05-04T09:50:57.823Z,43.00
2023-05-04T09:53:29.394Z,43.50
2023-05-04T09:56:14.872Z,43.90
2023-05-04T09:58:43.107Z,44.70
2023-05-04T10:01:10.471Z,45.40
2023-05-04T10:03:37.917Z,45.20
2023-05-04T10:06:06.165Z,45.40
2023-05-04T10:08:33.541Z,45.50
2023-05-04T10:11:00.607Z,45.20
2023-05-04T10:13:28.312Z,44.30
2023-05-04T10:16:01.472Z,44.30
2023-05-04T10:18:40.422Z,44.00
2023-05-04T10:21:28.926Z,43.20
2023-05-04T10:24:22.831Z,43.60
2023-05-04T10:27:15.209Z,43.80
2023-05-04T10:29:42.981Z,43.70
2023-05-04T10:32:21.532Z,44.20
2023-05-04T10:34:49.070Z,44.10
2023-05-04T10:37:18.439Z,44.70
2023-05-04T10:39:55.216Z,44.90
2023-05-04T10:42:22.680Z,44.60
2023-05-04T10:44:57.257Z,45.40
2023-05-04T10:47:35.622Z,46.00
2023-05-04T10:50:08.145Z,46.30
2023-05-04T10:52:52.117Z,44.60
2023-05-04T10:55:20.395Z,44.00
2023-05-04T10:57:57.984Z,44.70
2023-05-04T11:00:39.412Z,45.00
2023-05-04T11:03:12.293Z,45.70
2023-05-04T11:05:47.080Z,45.80
2023-05-04T11:08:24.873Z,45.60
2023-05-04T11:11:07.119Z,46.20
2023-05-04T11:13:36.213Z,46.50
2023-05-04T11:16:03.266Z,46.80
2023-05-04T11:18:31.934Z,46.80
2023-05-04T11:20:58.973Z,47.00
2023-05-04T11:23:26.263Z,46.90
2023-05-04T11:25:53.908Z,46.70
2023-05-04T11:28:31.503Z,46.50
2023-05-04T11:30:58.894Z,45.60
2023-05-04T11:33:26.987Z,44.30
2023-05-04T11:36:03.901Z,44.10
2023-05-04T11:38:31.101Z,43.30
2023-05-04T11:40:58.174Z,43.60
2023-05-04T11:43:26.885Z,44.10
2023-05-04T11:45:56.033Z,44.40
2023-05-04T11:48:23.216Z,43.90
2023-05-04T11:50:50.798Z,44.00
2023-05-04T11:53:21.692Z,43.80
2023-05-04T11:55:49.095Z,43.80
2023-05-04T11:58:23.462Z,43.30
2023-05-04T12:00:58.826Z,43.30
2023-05-04T12:03:35.950Z,42.70
2023-05-04T12:06:10.876Z,42.20
2023-05-04T12:08:42.454Z,41.70
2023-05-04T12:11:28.900Z,41.10
2023-05-04T12:14:17.209Z,40.90
2023-05-04T12:16:55.043Z,40.60
2023-05-04T12:19:22.019Z,40.90
2023-05-04T12:21:51.988Z,40.80
2023-05-04T12:24:22.592Z,41.20
2023-05-04T12:26:49.967Z,41.10
2023-05-04T12:29:17.268Z,41.00
2023-05-04T12:31:44.391Z,41.40
2023-05-04T12:34:11.561Z,41.40
2023-05-04T12:36:38.559Z,41.60
2023-05-04T12:39:05.626Z,41.80
2023-05-04T12:41:32.704Z,41.70
2023-05-04T12:43:59.781Z,41.30
2023-05-04T12:46:26.929Z,41.80
2023-05-04T12:48:53.914Z,41.60
2023-05-04T12:51:20.995Z,41.10
2023-05-04T12:53:48.402Z,41.40
2023-05-04T12:56:15.402Z,40.90
2023-05-04T12:58:42.392Z,41.00
2023-05-04T13:01:09.521Z,41.30
2023-05-04T13:03:36.743Z,41.10
2023-05-04T13:06:05.145Z,40.70
2023-05-04T13:08:33.630Z,40.70
2023-05-04T13:11:00.843Z,40.70
2023-05-04T13:13:29.689Z,40.20
2023-05-04T13:15:57.463Z,40.10
2023-05-04T13:18:27.308Z,40.00
2023-05-04T13:20:56.068Z,40.00
2023-05-04T13:23:23.813Z,40.10
2023-05-04T13:25:51.544Z,40.10
2023-05-04T13:28:19.010Z,40.20
2023-05-04T13:30:46.530Z,39.90
2023-05-04T13:33:28.142Z,39.90
2023-05-04T13:35:58.513Z,39.10
2023-05-04T13:38:26.008Z,39.50
2023-05-04T13:40:53.201Z,39.40
2023-05-04T13:43:21.253Z,38.70
2023-05-04T13:45:48.548Z,38.60
2023-05-04T13:48:15.546Z,38.60
2023-05-04T13:50:42.740Z,38.70
2023-05-04T13:53:12.797Z,38.70
2023-05-04T13:55:39.737Z,38.80
2023-05-04T13:58:06.846Z,38.40
2023-05-04T14:00:33.750Z,38.30
2023-05-04T14:03:00.934Z,38.80
2023-05-04T14:05:28.037Z,39.50
2023-05-04T14:07:55.184Z,39.60
2023-05-04T14:10:22.190Z,39.00
2023-05-04T14:12:49.449Z,38.90
2023-05-04T14:15:16.867Z,38.80
2023-05-04T14:17:43.904Z,39.00
2023-05-04T14:20:11.330Z,39.50
2023-05-04T14:22:41.268Z,38.90
2023-05-04T14:25:08.977Z,39.40
2023-05-04T14:27:36.269Z,39.10
2023-05-04T14:30:04.497Z,38.70
2023-05-04T14:32:31.581Z,38.80
2023-05-04T14:35:08.170Z,38.80
2023-05-04T14:37:37.561Z,38.70
2023-05-04T14:40:10.270Z,38.50
2023-05-04T14:42:38.444Z,38.10
2023-05-04T14:45:07.159Z,38.40
2023-05-04T14:47:34.799Z,38.70
2023-05-04T14:50:02.419Z,38.40
2023-05-04T14:52:29.469Z,37.70
2023-05-04T14:54:56.603Z,37.00
2023-05-04T14:57:23.778Z,37.50
2023-05-04T14:59:51.254Z,37.80
2023-05-04T15:02:19.406Z,38.00
2023-05-04T15:04:47.214Z,37.60
2023-05-04T15:07:20.631Z,37.90
2023-05-04T15:09:47.842Z,37.80
2023-05-04T15:12:14.819Z,37.20
2023-05-04T15:14:42.074Z,37.60
2023-05-04T15:17:09.434Z,37.60
2023-05-04T15:19:40.090Z,37.70
2023-05-04T15:22:07.604Z,37.20
2023-05-04T15:24:34.754Z,37.80
2023-05-04T15:27:02.207Z,38.00
2023-05-04T15:29:29.323Z,37.50
2023-05-04T15:31:56.670Z,37.10
2023-05-04T15:34:23.708Z,37.00
2023-05-04T15:36:50.692Z,37.10
2023-05-04T15:39:17.927Z,36.70
2023-05-04T15:41:45.014Z,36.80
2023-05-04T15:44:12.208Z,37.30
2023-05-04T15:46:39.330Z,37.50
2023-05-04T15:49:06.459Z,37.40
2023-05-04T15:51:33.597Z,37.10
2023-05-04T15:54:00.807Z,37.20
2023-05-04T15:56:28.563Z,37.20
2023-05-04T15:58:58.418Z,36.80
2023-05-04T16:01:25.691Z,36.80
2023-05-04T16:03:55.615Z,37.10
2023-05-04T16:06:24.290Z,36.70
2023-05-04T16:08:51.404Z,36.70
2023-05-04T16:11:18.565Z,37.00
2023-05-04T16:13:46.504Z,36.70
2023-05-04T16:16:13.616Z,36.30
2023-05-04T16:18:40.751Z,36.20
2023-05-04T16:21:09.044Z,36.30
2023-05-04T16:23:37.210Z,36.30
2023-05-04T16:26:04.619Z,35.90
2023-05-04T16:28:31.797Z,35.90
2023-05-04T16:30:58.947Z,36.10
2023-05-04T16:33:27.777Z,37.00
2023-05-04T16:35:54.938Z,36.80
2023-05-04T16:38:21.982Z,36.60
2023-05-04T16:40:49.074Z,36.00
2023-05-04T16:43:16.604Z,36.20
2023-05-04T16:45:43.646Z,37.10
2023-05-04T16:48:10.762Z,36.70
2023-05-04T16:50:38.829Z,36.90
2023-05-04T16:53:05.876Z,37.40
2023-05-04T16:55:32.812Z,37.80
2023-05-04T16:58:00.285Z,37.20
2023-05-04T17:00:29.299Z,36.80
2023-05-04T17:02:56.340Z,36.90
2023-05-04T17:05:24.489Z,36.80
2023-05-04T17:07:51.795Z,36.80
2023-05-04T17:10:18.949Z,37.10
2023-05-04T17:12:46.159Z,37.50
2023-05-04T17:15:13.550Z,37.40
2023-05-04T17:17:41.781Z,37.70
2023-05-04T17:20:15.072Z,37.70
2023-05-04T17:22:43.645Z,36.40
2023-05-04T17:25:12.233Z,36.10
2023-05-04T17:27:39.531Z,36.00
2023-05-04T17:30:08.687Z,35.60
2023-05-04T17:32:37.430Z,35.50
2023-05-04T17:35:12.266Z,35.10
2023-05-04T17:37:47.738Z,35.00
2023-05-04T17:40:14.814Z,34.80
2023-05-04T17:42:41.863Z,35.40
2023-05-04T17:45:09.230Z,35.90
2023-05-04T17:47:36.357Z,35.10
2023-05-04T17:50:04.049Z,34.90
2023-05-04T17:52:32.517Z,35.30
2023-05-04T17:54:59.580Z,35.00
2023-05-04T17:57:26.774Z,34.80
2023-05-04T17:59:57.245Z,33.70
2023-05-04T18:02:24.406Z,34.10
2023-05-04T18:04:53.475Z,33.40
2023-05-04T18:07:20.663Z,33.20
2023-05-04T18:09:47.655Z,33.40
2023-05-04T18:12:14.827Z,33.70
2023-05-04T18:14:41.769Z,33.40
2023-05-04T18:17:08.871Z,33.00
2023-05-04T18:19:37.202Z,33.20
2023-05-04T18:22:04.273Z,33.40
2023-05-04T18:24:33.827Z,34.00
2023-05-04T18:27:02.198Z,33.80
2023-05-04T18:29:29.292Z,33.70
2023-05-04T18:31:56.351Z,33.30
2023-05-04T18:34:23.676Z,33.70
2023-05-04T18:36:51.022Z,33.40
2023-05-04T18:39:19.679Z,33.50
2023-05-04T18:41:46.847Z,33.60
2023-05-04T18:44:14.320Z,33.60
2023-05-04T18:46:41.541Z,33.80
2023-05-04T18:49:09.518Z,34.40
2023-05-04T18:51:36.943Z,34.30
2023-05-04T18:54:04.130Z,34.60
2023-05-04T18:56:31.169Z,34.90
2023-05-04T18:58:58.117Z,34.60
2023-05-04T19:01:25.170Z,34.80
2023-05-04T19:03:52.262Z,34.20
2023-05-04T19:06:19.441Z,33.80
2023-05-04T19:08:46.406Z,33.90
2023-05-04T19:11:13.385Z,34.60
2023-05-04T19:13:41.617Z,34.80
2023-05-04T19:16:12.631Z,35.00
2023-05-04T19:18:39.862Z,35.00
2023-05-04T19:21:07.001Z,35.10
2023-05-04T19:23:34.308Z,34.70
2023-05-04T19:26:04.267Z,35.00
2023-05-04T19:28:31.354Z,34.80
2023-05-04T19:31:00.017Z,35.00
2023-05-04T19:33:40.477Z,35.30
2023-05-04T19:36:14.487Z,35.40
2023-05-04T19:38:41.507Z,35.60
2023-05-04T19:41:09.381Z,35.80
2023-05-04T19:43:38.724Z,35.90
2023-05-04T19:46:05.870Z,35.40
2023-05-04T19:48:34.100Z,35.00
2023-05-04T19:51:02.262Z,34.90
2023-05-04T19:53:29.864Z,33.90
2023-05-04T19:55:57.024Z,34.50
2023-05-04T19:58:28.433Z,35.00
2023-05-04T20:00:55.566Z,35.00
2023-05-04T20:03:22.599Z,35.30
2023-05-04T20:05:51.476Z,35.40
2023-05-04T20:08:19.036Z,35.60
2023-05-04T20:10:46.990Z,35.40
2023-05-04T20:13:14.104Z,35.50
2023-05-04T20:15:42.821Z,35.70
2023-05-04T20:18:09.833Z,35.60
2023-05-04T20:20:37.024Z,35.70
2023-05-04T20:23:04.759Z,35.50
2023-05-04T20:25:32.647Z,35.70
2023-05-04T20:27:59.689Z,35.70
2023-05-04T20:30:28.864Z,35.80
2023-05-04T20:32:56.125Z,35.70
2023-05-04T20:35:23.520Z,35.80
2023-05-04T20:37:50.664Z,35.60
2023-05-04T20:40:17.787Z,35.80
2023-05-04T20:42:44.818Z,36.20
2023-05-04T20:45:11.998Z,36.30
2023-05-04T20:47:39.131Z,36.20
2023-05-04T20:50:08.264Z,35.90
2023-05-04T20:52:35.445Z,35.70
2023-05-04T20:55:02.646Z,35.50
2023-05-04T20:57:29.772Z,35.40
2023-05-04T20:59:56.951Z,35.60
2023-05-04T21:02:24.070Z,35.60
2023-05-04T21:04:51.500Z,35.50
2023-05-04T21:07:19.153Z,35.30
2023-05-04T21:09:46.244Z,34.90
2023-05-04T21:12:13.313Z,34.50
2023-05-04T21:14:40.454Z,34.60
2023-05-04T21:17:07.427Z,34.50
2023-05-04T21:19:34.484Z,34.60
2023-05-04T21:22:01.611Z,33.80
2023-05-04T21:24:28.568Z,31.70
2023-05-04T21:26:55.635Z,31.30
2023-05-04T21:29:23.190Z,31.90
2023-05-04T21:31:50.317Z,33.30
2023-05-04T21:34:17.560Z,33.30
2023-05-04T21:36:44.754Z,33.60
2023-05-04T21:39:12.663Z,33.60
2023-05-04T21:41:39.797Z,33.60
2023-05-04T21:44:06.861Z,32.50
2023-05-04T21:46:33.911Z,32.10
2023-05-04T21:49:01.495Z,32.00
2023-05-04T21:51:29.003Z,32.90
2023-05-04T21:53:56.043Z,33.50
2023-05-04T21:56:23.221Z,34.20
2023-05-04T21:58:50.636Z,34.70
2023-05-04T22:01:18.412Z,34.70
2023-05-04T22:03:46.040Z,34.60
2023-05-04T22:06:13.883Z,34.60
2023-05-04T22:08:40.937Z,34.60
2023-05-04T22:11:09.239Z,34.80
2023-05-04T22:13:36.430Z,34.20
2023-05-04T22:16:03.564Z,34.20
2023-05-04T22:18:30.785Z,34.20
2023-05-04T22:20:57.991Z,34.10
2023-05-04T22:23:25.337Z,34.20
2023-05-04T22:25:52.361Z,34.50
2023-05-04T22:28:19.409Z,34.10
2023-05-04T22:30:46.933Z,34.20
2023-05-04T22:33:13.937Z,34.00
2023-05-04T22:35:40.909Z,34.20
2023-05-04T22:38:08.035Z,34.30
2023-05-04T22:40:35.026Z,34.40
2023-05-04T22:43:02.250Z,34.20
2023-05-04T22:45:30.645Z,33.60
2023-05-04T22:47:57.774Z,32.80
2023-05-04T22:50:24.943Z,31.60
2023-05-04T22:52:51.943Z,31.40
2023-05-04T22:55:19.086Z,32.10
2023-05-04T22:57:46.135Z,33.30
2023-05-04T23:00:13.670Z,34.20
2023-05-04T23:02:40.872Z,34.80
2023-05-04T23:05:09.116Z,34.60
2023-05-04T23:07:36.426Z,35.10
2023-05-04T23:10:05.086Z,34.30
2023-05-04T23:12:32.469Z,33.60
2023-05-04T23:14:59.702Z,33.90
2023-05-04T23:17:26.658Z,32.90
2023-05-04T23:19:53.800Z,31.20
2023-05-04T23:22:20.863Z,30.80
2023-05-04T23:24:47.797Z,31.00
2023-05-04T23:27:15.014Z,30.20
2023-05-04T23:29:41.975Z,31.10
2023-05-04T23:32:09.118Z,30.30
2023-05-04T23:34:36.413Z,29.40
2023-05-04T23:37:03.459Z,28.80
2023-05-04T23:39:30.466Z,27.90
2023-05-04T23:41:57.498Z,27.50
2023-05-04T23:44:24.649Z,28.40
2023-05-04T23:46:51.582Z,28.90
2023-05-04T23:49:18.906Z,30.60
2023-05-04T23:51:45.899Z,30.60
2023-05-04T23:54:14.000Z,30.90
2023-05-04T23:56:41.208Z,30.70
2023-05-04T23:59:08.358Z,31.10
